createdAt,value
2022-12-28T00:01:23.304Z,101555.66
2022-12-28T00:03:51.781Z,101553.34
2022-12-28T00:06:20.514Z,101540.63
2022-12-28T00:08:47.889Z,101534.50
2022-12-28T00:11:30.234Z,101530.44
2022-12-28T00:14:00.470Z,101525.94
2022-12-28T00:16:39.834Z,101526.66
2022-12-28T00:19:11.232Z,101518.56
2022-12-28T00:21:38.824Z,101523.50
2022-12-28T00:24:06.343Z,101517.88
2022-12-28T00:26:34.996Z,101510.56
2022-12-28T00:29:05.242Z,101505.84
2022-12-28T00:31:34.312Z,101496.41
2022-12-28T00:34:02.679Z,101489.56
2022-12-28T00:37:08.349Z,101489.19
2022-12-28T00:39:19.576Z,101478.81
2022-12-28T00:41:47.244Z,101473.72
2022-12-28T00:44:14.506Z,101474.34
2022-12-28T00:46:41.731Z,101465.28
2022-12-28T00:49:09.156Z,101468.81
2022-12-28T00:51:36.527Z,101463.91
2022-12-28T00:54:04.251Z,101449.13
2022-12-28T00:56:31.566Z,101448.53
2022-12-28T00:58:59.722Z,101448.97
2022-12-28T01:01:28.473Z,101454.03
2022-12-28T01:03:59.011Z,101450.00
2022-12-28T01:06:27.464Z,101447.91
2022-12-28T01:08:55.323Z,101444.63
2022-12-28T01:11:25.398Z,101445.44
2022-12-28T01:13:55.420Z,101440.19
2022-12-28T01:16:32.824Z,101440.59
2022-12-28T01:19:02.023Z,101434.38
2022-12-28T01:21:32.385Z,101437.72
2022-12-28T01:24:01.932Z,101430.97
2022-12-28T01:26:29.779Z,101436.38
2022-12-28T01:28:58.614Z,101431.59
2022-12-28T01:31:26.557Z,101435.34
2022-12-28T01:33:54.417Z,101435.81
2022-12-28T01:36:23.848Z,101431.91
2022-12-28T01:38:56.626Z,101435.22
2022-12-28T01:41:26.644Z,101430.38
2022-12-28T01:43:53.953Z,101430.63
2022-12-28T01:46:59.163Z,101435.97
2022-12-28T01:49:37.353Z,101435.16
2022-12-28T01:52:24.841Z,101434.88
2022-12-28T01:54:59.918Z,101438.66
2022-12-28T01:57:30.318Z,101421.31
2022-12-28T02:00:02.109Z,101424.00
2022-12-28T02:02:42.408Z,101414.66
2022-12-28T02:05:10.129Z,101423.28
2022-12-28T02:07:51.352Z,101410.44
2022-12-28T02:10:43.852Z,101405.91
2022-12-28T02:13:07.250Z,101417.41
2022-12-28T02:15:34.639Z,101416.81
2022-12-28T02:18:02.476Z,101419.00
2022-12-28T02:20:37.252Z,101415.44
2022-12-28T02:23:12.964Z,101422.72
2022-12-28T02:25:58.686Z,101412.75
2022-12-28T02:28:58.707Z,101413.00
2022-12-28T02:32:11.402Z,101405.03
2022-12-28T02:34:53.616Z,101397.75
2022-12-28T02:37:27.519Z,101397.25
2022-12-28T02:40:21.725Z,101395.84
2022-12-28T02:42:50.277Z,101391.34
2022-12-28T02:46:06.150Z,101394.75
2022-12-28T02:49:01.703Z,101377.84
2022-12-28T02:51:59.215Z,101377.38
2022-12-28T02:55:09.951Z,101391.19
2022-12-28T02:58:20.452Z,101377.13
2022-12-28T03:01:06.222Z,101374.97
2022-12-28T03:03:33.463Z,101362.72
2022-12-28T03:06:40.793Z,101362.88
2022-12-28T03:09:33.238Z,101368.63
2022-12-28T03:12:08.837Z,101347.47
2022-12-28T03:14:43.933Z,101351.94
2022-12-28T03:17:30.424Z,101343.56
2022-12-28T03:20:19.350Z,101348.25
2022-12-28T03:23:06.442Z,101331.59
2022-12-28T03:25:57.060Z,101347.28
2022-12-28T03:28:49.565Z,101338.16
2022-12-28T03:31:23.260Z,101344.41
2022-12-28T03:34:06.880Z,101334.19
2022-12-28T03:36:53.758Z,101340.16
2022-12-28T03:39:54.176Z,101339.44
2022-12-28T03:42:45.578Z,101330.50
2022-12-28T03:45:44.261Z,101324.72
2022-12-28T03:48:07.091Z,101330.75
2022-12-28T03:50:40.196Z,101322.16
2022-12-28T03:53:08.959Z,101327.81
2022-12-28T03:55:38.153Z,101325.75
2022-12-28T03:58:05.964Z,101326.69
2022-12-28T04:00:33.444Z,101329.69
2022-12-28T04:03:01.347Z,101323.66
2022-12-28T04:05:29.261Z,101320.28
2022-12-28T04:07:56.674Z,101315.84
2022-12-28T04:10:23.934Z,101316.53
2022-12-28T04:12:55.576Z,101321.84
2022-12-28T04:15:28.214Z,101310.91
2022-12-28T04:17:55.562Z,101310.34
2022-12-28T04:20:23.784Z,101311.41
2022-12-28T04:22:51.646Z,101307.69
2022-12-28T04:25:19.256Z,101299.66
2022-12-28T04:27:46.780Z,101299.34
2022-12-28T04:30:34.023Z,101297.16
2022-12-28T04:33:01.509Z,101291.25
2022-12-28T04:35:29.372Z,101283.03
2022-12-28T04:37:56.966Z,101282.88
2022-12-28T04:40:24.316Z,101282.19
2022-12-28T04:42:51.534Z,101263.03
2022-12-28T04:45:22.136Z,101274.56
2022-12-28T04:47:49.576Z,101276.22
2022-12-28T04:50:17.122Z,101279.41
2022-12-28T04:52:44.401Z,101280.53
2022-12-28T04:55:32.832Z,101275.41
2022-12-28T04:58:00.986Z,101270.94
2022-12-28T05:00:28.420Z,101265.44
2022-12-28T05:02:59.332Z,101255.84
2022-12-28T05:05:28.153Z,101254.16
2022-12-28T05:07:56.006Z,101257.13
2022-12-28T05:10:23.348Z,101246.81
2022-12-28T05:12:50.766Z,101245.03
2022-12-28T05:15:18.017Z,101237.13
2022-12-28T05:17:45.299Z,101237.72
2022-12-28T05:20:12.738Z,101232.44
2022-12-28T05:22:41.186Z,101232.00
2022-12-28T05:25:08.811Z,101234.75
2022-12-28T05:27:35.995Z,101235.66
2022-12-28T05:30:03.604Z,101234.31
2022-12-28T05:32:30.864Z,101224.66
2022-12-28T05:34:58.289Z,101227.94
2022-12-28T05:37:25.531Z,101224.47
2022-12-28T05:39:52.945Z,101228.53
2022-12-28T05:42:20.192Z,101220.03
2022-12-28T05:44:47.460Z,101224.22
2022-12-28T05:47:14.710Z,101227.63
2022-12-28T05:49:42.110Z,101224.63
2022-12-28T05:52:09.329Z,101218.06
2022-12-28T05:54:36.569Z,101219.06
2022-12-28T05:57:03.858Z,101226.41
2022-12-28T05:59:31.440Z,101218.16
2022-12-28T06:01:59.231Z,101209.47
2022-12-28T06:04:26.697Z,101207.84
2022-12-28T06:06:56.732Z,101212.06
2022-12-28T06:09:24.119Z,101207.56
2022-12-28T06:11:51.273Z,101202.28
2022-12-28T06:14:18.506Z,101201.75
2022-12-28T06:16:46.129Z,101195.81
2022-12-28T06:19:16.348Z,101187.88
2022-12-28T06:21:43.976Z,101192.56
2022-12-28T06:24:11.996Z,101191.22
2022-12-28T06:26:41.049Z,101183.56
2022-12-28T06:29:09.355Z,101180.69
2022-12-28T06:31:38.950Z,101176.31
2022-12-28T06:34:07.965Z,101175.91
2022-12-28T06:36:40.546Z,101175.28
2022-12-28T06:39:09.997Z,101172.91
2022-12-28T06:41:37.893Z,101165.91
2022-12-28T06:44:10.317Z,101153.75
2022-12-28T06:46:37.959Z,101161.19
2022-12-28T06:49:05.509Z,101156.81
2022-12-28T06:51:36.406Z,101159.84
2022-12-28T06:54:03.863Z,101154.34
2022-12-28T06:56:36.015Z,101148.03
2022-12-28T06:59:04.564Z,101150.41
2022-12-28T07:01:37.846Z,101144.75
2022-12-28T07:04:06.448Z,101143.19
2022-12-28T07:06:40.017Z,101135.41
2022-12-28T07:09:10.567Z,101133.69
2022-12-28T07:11:38.246Z,101124.09
2022-12-28T07:14:05.600Z,101133.66
2022-12-28T07:18:59.821Z,101119.22
2022-12-28T07:21:30.431Z,101114.50
2022-12-28T07:23:58.289Z,101114.03
2022-12-28T07:26:31.018Z,101114.88
2022-12-28T07:29:00.147Z,101105.09
2022-12-28T07:31:36.947Z,101110.63
2022-12-28T07:34:07.398Z,101105.00
2022-12-28T07:36:34.755Z,101107.31
2022-12-28T07:39:02.564Z,101106.06
2022-12-28T07:41:33.195Z,101107.69
2022-12-28T07:44:01.050Z,101107.63
2022-12-28T07:46:30.649Z,101103.63
2022-12-28T07:48:58.337Z,101090.63
2022-12-28T07:51:27.804Z,101092.72
2022-12-28T07:53:56.283Z,101090.44
2022-12-28T07:56:24.329Z,101089.31
2022-12-28T07:58:53.421Z,101092.06
2022-12-28T08:01:22.381Z,101083.44
2022-12-28T08:03:53.583Z,101078.56
2022-12-28T08:06:23.025Z,101080.34
2022-12-28T08:08:55.427Z,101076.22
2022-12-28T08:11:25.801Z,101078.38
2022-12-28T08:13:54.886Z,101076.88
2022-12-28T08:16:24.510Z,101073.50
2022-12-28T08:18:51.927Z,101054.25
2022-12-28T08:21:22.188Z,101055.31
2022-12-28T08:23:50.682Z,101045.44
2022-12-28T08:26:26.078Z,101047.25
2022-12-28T08:28:55.981Z,101057.50
2022-12-28T08:31:35.215Z,101050.97
2022-12-28T08:34:03.712Z,101044.66
2022-12-28T08:36:31.662Z,101057.50
2022-12-28T08:39:00.506Z,101046.78
2022-12-28T08:41:29.136Z,101048.41
2022-12-28T08:43:57.378Z,101048.63
2022-12-28T08:46:32.533Z,101042.00
2022-12-28T08:49:00.930Z,101043.53
2022-12-28T08:51:38.520Z,101043.84
2022-12-28T08:54:06.394Z,101043.34
2022-12-28T08:56:36.568Z,101045.34
2022-12-28T08:59:04.958Z,101048.72
2022-12-28T09:01:40.818Z,101038.00
2022-12-28T09:04:30.208Z,101024.50
2022-12-28T09:07:00.508Z,101019.78
2022-12-28T09:09:27.996Z,101021.09
2022-12-28T09:11:57.905Z,101027.75
2022-12-28T09:14:25.197Z,101021.88
2022-12-28T09:16:53.670Z,101025.81
2022-12-28T09:19:21.486Z,101029.56
2022-12-28T09:21:52.405Z,101020.59
2022-12-28T09:24:19.903Z,101007.91
2022-12-28T09:26:47.197Z,100999.91
2022-12-28T09:29:15.019Z,100998.78
2022-12-28T09:31:44.244Z,100995.69
2022-12-28T09:37:00.880Z,100994.03
2022-12-28T09:39:29.191Z,100993.56
2022-12-28T09:42:04.020Z,100996.00
2022-12-28T09:44:41.953Z,100990.94
2022-12-28T09:47:17.229Z,100993.63
2022-12-28T09:50:12.306Z,100993.03
2022-12-28T09:52:57.349Z,100989.19
2022-12-28T09:55:24.896Z,100998.59
2022-12-28T09:57:55.661Z,100999.03
2022-12-28T10:00:38.996Z,100996.56
2022-12-28T10:03:14.578Z,100993.53
2022-12-28T10:05:42.133Z,100992.75
2022-12-28T10:08:12.321Z,100994.19
2022-12-28T10:10:42.003Z,100981.63
2022-12-28T10:13:45.523Z,100968.09
2022-12-28T10:16:13.630Z,100976.09
2022-12-28T10:18:40.891Z,100967.31
2022-12-28T10:21:08.381Z,100972.69
2022-12-28T10:23:50.214Z,100978.56
2022-12-28T10:26:23.909Z,100965.63
2022-12-28T10:28:52.120Z,100960.34
2022-12-28T10:31:36.752Z,100963.31
2022-12-28T10:34:21.172Z,100964.50
2022-12-28T10:36:49.732Z,100969.09
2022-12-28T10:39:28.327Z,100964.41
2022-12-28T10:42:00.837Z,100958.38
2022-12-28T10:44:39.783Z,100944.22
2022-12-28T10:47:24.719Z,100950.69
2022-12-28T10:53:09.177Z,100937.44
2022-12-28T10:55:36.749Z,100941.78
2022-12-28T10:58:30.362Z,100935.16
2022-12-28T11:01:06.706Z,100939.41
2022-12-28T11:03:39.120Z,100934.13
2022-12-28T11:06:12.606Z,100913.53
2022-12-28T11:08:41.095Z,100915.78
2022-12-28T11:11:24.864Z,100908.94
2022-12-28T11:13:57.233Z,100898.13
2022-12-28T11:16:24.721Z,100890.63
2022-12-28T11:18:52.487Z,100875.81
2022-12-28T11:21:21.640Z,100867.13
2022-12-28T11:23:50.955Z,100859.16
2022-12-28T11:26:19.551Z,100860.69
2022-12-28T11:28:50.339Z,100843.34
2022-12-28T11:31:21.432Z,100856.34
2022-12-28T11:33:51.619Z,100845.91
2022-12-28T11:36:20.597Z,100836.03
2022-12-28T11:38:49.643Z,100831.06
2022-12-28T11:41:33.481Z,100835.16
2022-12-28T11:44:04.635Z,100827.25
2022-12-28T11:46:34.990Z,100814.91
2022-12-28T11:49:04.028Z,100813.38
2022-12-28T11:51:33.657Z,100816.06
2022-12-28T11:54:06.136Z,100816.50
2022-12-28T11:56:36.519Z,100814.19
2022-12-28T11:59:13.383Z,100807.56
2022-12-28T12:01:42.319Z,100809.25
2022-12-28T12:04:28.776Z,100789.75
2022-12-28T12:07:01.253Z,100788.50
2022-12-28T12:09:43.638Z,100779.28
2022-12-28T12:12:17.872Z,100774.56
2022-12-28T12:15:02.976Z,100761.25
2022-12-28T12:17:43.098Z,100755.63
2022-12-28T12:20:34.409Z,100752.47
2022-12-28T12:23:29.499Z,100760.97
2022-12-28T12:25:59.623Z,100763.75
2022-12-28T12:28:46.648Z,100763.75
2022-12-28T12:31:19.277Z,100759.34
2022-12-28T12:33:48.582Z,100757.31
2022-12-28T12:36:28.909Z,100741.50
2022-12-28T12:39:08.717Z,100732.53
2022-12-28T12:41:49.270Z,100739.28
2022-12-28T12:44:28.434Z,100725.88
2022-12-28T12:47:11.277Z,100719.03
2022-12-28T12:50:15.862Z,100716.53
2022-12-28T12:52:53.968Z,100701.41
2022-12-28T12:55:40.305Z,100710.41
2022-12-28T12:58:22.614Z,100699.56
2022-12-28T13:01:19.736Z,100685.53
2022-12-28T13:03:49.772Z,100684.69
2022-12-28T13:06:20.077Z,100685.28
2022-12-28T13:08:51.525Z,100673.06
2022-12-28T13:11:19.382Z,100681.47
2022-12-28T13:13:49.193Z,100670.94
2022-12-28T13:16:19.803Z,100658.22
2022-12-28T13:18:58.353Z,100651.28
2022-12-28T13:21:28.294Z,100644.81
2022-12-28T13:23:55.607Z,100640.63
2022-12-28T13:26:29.214Z,100638.00
2022-12-28T13:29:08.082Z,100635.34
2022-12-28T13:31:38.365Z,100625.88
2022-12-28T13:34:26.005Z,100628.50
2022-12-28T13:37:01.557Z,100619.41
2022-12-28T13:39:34.108Z,100608.09
2022-12-28T13:42:10.488Z,100609.00
2022-12-28T13:44:41.729Z,100604.91
2022-12-28T13:47:23.288Z,100593.25
2022-12-28T13:50:02.885Z,100591.31
2022-12-28T13:52:52.817Z,100577.69
2022-12-28T13:55:26.422Z,100566.03
2022-12-28T13:57:59.845Z,100573.22
2022-12-28T14:00:28.499Z,100561.41
2022-12-28T14:02:57.077Z,100551.66
2022-12-28T14:05:26.698Z,100546.94
2022-12-28T14:07:56.153Z,100526.16
2022-12-28T14:10:24.182Z,100517.28
2022-12-28T14:12:51.757Z,100521.19
2022-12-28T14:15:19.367Z,100512.78
2022-12-28T14:17:47.620Z,100506.34
2022-12-28T14:20:15.515Z,100511.88
2022-12-28T14:22:42.831Z,100504.91
2022-12-28T14:25:12.946Z,100501.75
2022-12-28T14:27:46.467Z,100501.03
2022-12-28T14:30:24.325Z,100500.94
2022-12-28T14:32:52.714Z,100494.38
2022-12-28T14:35:25.952Z,100491.31
2022-12-28T14:37:55.764Z,100484.63
2022-12-28T14:40:30.674Z,100490.03
2022-12-28T14:42:59.522Z,100461.38
2022-12-28T14:46:07.316Z,100464.78
2022-12-28T14:48:40.206Z,100465.78
2022-12-28T14:51:17.430Z,100454.66
2022-12-28T14:56:34.764Z,100450.06
2022-12-28T14:59:02.425Z,100444.69
2022-12-28T15:01:44.730Z,100445.19
2022-12-28T15:04:35.765Z,100433.84
2022-12-28T15:07:08.246Z,100446.22
2022-12-28T15:09:35.998Z,100451.00
2022-12-28T15:12:13.259Z,100435.81
2022-12-28T15:14:41.735Z,100430.00
2022-12-28T15:17:09.821Z,100422.97
2022-12-28T15:19:37.155Z,100436.06
2022-12-28T15:22:05.247Z,100433.97
2022-12-28T15:24:34.339Z,100419.94
2022-12-28T15:27:02.854Z,100439.41
2022-12-28T15:32:17.478Z,100431.09
2022-12-28T15:34:44.765Z,100427.19
2022-12-28T15:37:12.032Z,100410.25
2022-12-28T15:39:39.545Z,100413.66
2022-12-28T15:42:06.893Z,100412.56
2022-12-28T15:44:34.133Z,100421.25
2022-12-28T15:47:01.431Z,100398.28
2022-12-28T15:49:28.956Z,100393.22
2022-12-28T15:51:56.228Z,100386.38
2022-12-28T15:54:23.662Z,100388.22
2022-12-28T15:56:55.408Z,100381.59
2022-12-28T15:59:22.841Z,100378.16
2022-12-28T16:01:50.231Z,100388.72
2022-12-28T16:04:17.694Z,100385.03
2022-12-28T16:06:45.481Z,100386.28
2022-12-28T16:09:13.946Z,100385.00
2022-12-28T16:11:41.728Z,100379.59
2022-12-28T16:14:14.000Z,100373.97
2022-12-28T16:16:41.797Z,100372.69
2022-12-28T16:19:14.967Z,100371.31
2022-12-28T16:21:43.241Z,100377.78
2022-12-28T16:24:10.861Z,100358.13
2022-12-28T16:26:38.371Z,100359.53
2022-12-28T16:29:05.643Z,100371.34
2022-12-28T16:31:35.271Z,100351.03
2022-12-28T16:34:08.410Z,100361.28
2022-12-28T16:36:35.867Z,100357.63
2022-12-28T16:39:05.513Z,100360.53
2022-12-28T16:41:36.600Z,100353.69
2022-12-28T16:44:12.338Z,100349.63
2022-12-28T16:46:40.033Z,100347.66
2022-12-28T16:49:07.297Z,100347.78
2022-12-28T16:51:34.713Z,100344.03
2022-12-28T16:54:02.246Z,100347.03
2022-12-28T16:56:29.598Z,100344.44
2022-12-28T16:58:57.581Z,100348.03
2022-12-28T17:01:25.170Z,100342.59
2022-12-28T17:03:54.521Z,100340.66
2022-12-28T17:06:25.717Z,100335.16
2022-12-28T17:08:53.124Z,100330.66
2022-12-28T17:11:23.411Z,100341.28
2022-12-28T17:13:50.811Z,100318.31
2022-12-28T17:16:18.298Z,100330.91
2022-12-28T17:18:45.607Z,100333.31
2022-12-28T17:21:12.899Z,100328.13
2022-12-28T17:23:42.641Z,100325.50
2022-12-28T17:26:10.037Z,100337.47
2022-12-28T17:28:37.696Z,100328.94
2022-12-28T17:31:10.826Z,100329.50
2022-12-28T17:33:39.973Z,100325.34
2022-12-28T17:36:08.747Z,100315.16
2022-12-28T17:38:36.238Z,100311.41
2022-12-28T17:41:11.068Z,100296.97
2022-12-28T17:43:38.794Z,100306.63
2022-12-28T17:46:06.514Z,100293.25
2022-12-28T17:48:33.850Z,100299.63
2022-12-28T17:51:03.522Z,100303.75
2022-12-28T17:53:33.978Z,100300.19
2022-12-28T17:56:03.093Z,100287.25
2022-12-28T17:58:30.784Z,100279.66
2022-12-28T18:00:58.531Z,100293.50
2022-12-28T18:03:33.234Z,100283.78
2022-12-28T18:06:01.471Z,100275.84
2022-12-28T18:08:29.075Z,100273.19
2022-12-28T18:10:57.091Z,100280.81
2022-12-28T18:13:24.698Z,100281.59
2022-12-28T18:15:52.316Z,100268.81
2022-12-28T18:18:20.053Z,100254.50
2022-12-28T18:20:56.401Z,100263.03
2022-12-28T18:23:23.692Z,100276.16
2022-12-28T18:25:51.064Z,100261.88
2022-12-28T18:28:18.344Z,100267.88
2022-12-28T18:30:46.002Z,100266.34
2022-12-28T18:33:13.270Z,100262.75
2022-12-28T18:35:40.729Z,100261.53
2022-12-28T18:38:07.992Z,100259.78
2022-12-28T18:40:37.880Z,100245.56
2022-12-28T18:43:06.088Z,100255.84
2022-12-28T18:45:33.401Z,100258.59
2022-12-28T18:48:00.919Z,100249.78
2022-12-28T18:50:28.244Z,100254.03
2022-12-28T18:52:55.491Z,100240.66
2022-12-28T18:55:22.849Z,100235.69
2022-12-28T18:57:50.247Z,100237.22
2022-12-28T19:00:17.818Z,100243.81
2022-12-28T19:02:45.556Z,100246.31
2022-12-28T19:05:13.012Z,100244.53
2022-12-28T19:07:44.505Z,100244.09
2022-12-28T19:10:15.978Z,100242.22
2022-12-28T19:12:44.164Z,100237.16
2022-12-28T19:15:11.767Z,100251.38
2022-12-28T19:17:39.914Z,100246.25
2022-12-28T19:20:08.036Z,100244.66
2022-12-28T19:22:35.372Z,100244.44
2022-12-28T19:25:02.764Z,100238.53
2022-12-28T19:27:30.061Z,100244.81
2022-12-28T19:29:57.390Z,100226.75
2022-12-28T19:32:24.763Z,100225.97
2022-12-28T19:34:53.519Z,100236.56
2022-12-28T19:37:20.949Z,100239.38
2022-12-28T19:39:51.117Z,100234.19
2022-12-28T19:42:20.850Z,100230.38
2022-12-28T19:44:48.138Z,100226.69
2022-12-28T19:47:15.447Z,100227.91
2022-12-28T19:49:42.792Z,100217.06
2022-12-28T19:52:10.272Z,100204.38
2022-12-28T19:54:37.725Z,100212.84
2022-12-28T19:57:05.219Z,100212.69
2022-12-28T19:59:32.842Z,100205.88
2022-12-28T20:02:01.270Z,100192.97
2022-12-28T20:04:28.630Z,100207.13
2022-12-28T20:06:55.996Z,100196.66
2022-12-28T20:09:23.332Z,100207.03
2022-12-28T20:11:50.855Z,100196.75
2022-12-28T20:14:24.837Z,100209.47
2022-12-28T20:16:52.642Z,100205.19
2022-12-28T20:19:20.056Z,100207.13
2022-12-28T20:21:49.425Z,100206.72
2022-12-28T20:24:17.602Z,100195.03
2022-12-28T20:26:45.043Z,100184.09
2022-12-28T20:29:15.943Z,100185.78
2022-12-28T20:31:43.665Z,100195.84
2022-12-28T20:34:11.175Z,100188.09
2022-12-28T20:36:39.821Z,100191.13
2022-12-28T20:39:07.187Z,100171.66
2022-12-28T20:41:56.797Z,100165.03
2022-12-28T20:44:26.477Z,100166.50
2022-12-28T20:46:55.121Z,100175.56
2022-12-28T20:49:24.193Z,100194.69
2022-12-28T20:51:52.420Z,100185.13
2022-12-28T20:54:20.410Z,100169.16
2022-12-28T20:56:53.966Z,100181.56
2022-12-28T20:59:22.683Z,100182.63
2022-12-28T21:01:49.991Z,100171.25
2022-12-28T21:04:17.567Z,100151.44
2022-12-28T21:06:45.854Z,100187.16
2022-12-28T21:09:13.328Z,100179.50
2022-12-28T21:11:40.547Z,100180.03
2022-12-28T21:14:07.801Z,100180.25
2022-12-28T21:16:35.202Z,100182.13
2022-12-28T21:19:02.647Z,100168.38
2022-12-28T21:21:29.854Z,100158.16
2022-12-28T21:23:57.135Z,100170.91
2022-12-28T21:26:25.667Z,100188.81
2022-12-28T21:28:53.004Z,100187.47
2022-12-28T21:31:20.373Z,100183.69
2022-12-28T21:33:47.778Z,100178.69
2022-12-28T21:36:17.003Z,100189.06
2022-12-28T21:38:45.579Z,100188.00
2022-12-28T21:41:38.174Z,100190.22
2022-12-28T21:44:10.819Z,100193.25
2022-12-28T21:46:38.350Z,100184.38
2022-12-28T21:49:06.288Z,100203.13
2022-12-28T21:51:38.503Z,100193.97
2022-12-28T21:54:14.513Z,100187.56
2022-12-28T21:56:43.179Z,100184.44
2022-12-28T21:59:11.630Z,100178.50
2022-12-28T22:01:59.374Z,100175.84
2022-12-28T22:04:45.875Z,100171.22
2022-12-28T22:07:14.806Z,100165.53
2022-12-28T22:10:01.224Z,100158.69
2022-12-28T22:12:34.467Z,100172.53
2022-12-28T22:15:22.112Z,100148.31
2022-12-28T22:17:49.678Z,100159.09
2022-12-28T22:20:17.214Z,100159.00
2022-12-28T22:22:44.464Z,100154.75
2022-12-28T22:25:12.419Z,100162.78
2022-12-28T22:27:40.048Z,100159.59
2022-12-28T22:30:08.286Z,100149.06
2022-12-28T22:32:35.595Z,100139.94
2022-12-28T22:35:03.465Z,100144.44
2022-12-28T22:37:33.542Z,100163.41
2022-12-28T22:40:01.416Z,100143.50
2022-12-28T22:42:28.778Z,100162.69
2022-12-28T22:44:56.616Z,100157.56
2022-12-28T22:47:27.335Z,100168.66
2022-12-28T22:49:54.857Z,100166.34
2022-12-28T22:52:22.167Z,100164.03
2022-12-28T22:54:49.964Z,100170.28
2022-12-28T22:57:17.326Z,100157.88
2022-12-28T22:59:45.229Z,100148.72
2022-12-28T23:02:12.792Z,100147.00
2022-12-28T23:04:41.018Z,100140.63
2022-12-28T23:07:08.465Z,100155.09
2022-12-28T23:09:36.503Z,100145.28
2022-12-28T23:12:03.988Z,100129.91
2022-12-28T23:14:49.737Z,100136.41
2022-12-28T23:17:17.531Z,100121.81
2022-12-28T23:20:04.459Z,100121.81
2022-12-28T23:22:52.332Z,100121.53
2022-12-28T23:25:40.194Z,100115.63
2022-12-28T23:28:10.128Z,100121.59
2022-12-28T23:30:38.903Z,100117.22
2022-12-28T23:33:06.230Z,100120.72
2022-12-28T23:35:33.653Z,100119.28
2022-12-28T23:38:00.895Z,100108.63
2022-12-28T23:40:28.396Z,100094.06
2022-12-28T23:42:55.809Z,100108.47
2022-12-28T23:45:23.163Z,100112.69
2022-12-28T23:47:53.342Z,100114.28
2022-12-28T23:50:20.632Z,100102.56
2022-12-28T23:52:47.960Z,100099.47
2022-12-28T23:55:15.442Z,100086.44
2022-12-28T23:57:43.318Z,100079.00
